createdAt,value
2022-09-02T00:00:00.435Z,41.6
2022-09-02T00:05:00.252Z,44.4
2022-09-02T00:10:00.383Z,23.0
2022-09-02T00:15:00.239Z,30.3
2022-09-02T00:20:00.486Z,30.3
2022-09-02T00:25:00.243Z,35.9
2022-09-02T00:30:00.395Z,29.4
2022-09-02T00:35:00.262Z,37.7
2022-09-02T00:40:00.407Z,41.2
2022-09-02T00:45:00.286Z,45.2
2022-09-02T00:50:00.398Z,45.6
2022-09-02T00:55:00.215Z,38.7
2022-09-02T01:00:00.401Z,38.9
2022-09-02T01:05:00.289Z,38.5
2022-09-02T01:10:00.397Z,34.7
2022-09-02T01:15:00.261Z,42.7
2022-09-02T01:20:00.387Z,43.4
2022-09-02T01:25:00.240Z,32.8
2022-09-02T01:30:00.411Z,42.7
2022-09-02T01:35:00.238Z,39.0
2022-09-02T01:40:00.390Z,29.1
2022-09-02T01:45:00.264Z,43.6
2022-09-02T01:50:00.382Z,39.4
2022-09-02T01:55:00.234Z,40.7
2022-09-02T02:00:01.360Z,43.2
2022-09-02T02:05:00.235Z,46.0
2022-09-02T02:10:00.389Z,40.1
2022-09-02T02:15:00.302Z,36.9
2022-09-02T02:20:00.409Z,36.7
2022-09-02T02:25:00.269Z,30.2
2022-09-02T02:30:00.422Z,39.5
2022-09-02T02:35:00.238Z,43.3
2022-09-02T02:40:00.431Z,38.2
2022-09-02T02:45:00.268Z,38.3
2022-09-02T02:50:00.405Z,42.4
2022-09-02T02:55:00.244Z,40.9
2022-09-02T03:00:00.433Z,37.7
2022-09-02T03:05:00.274Z,38.6
2022-09-02T03:10:00.384Z,33.0
2022-09-02T03:15:00.268Z,39.8
2022-09-02T03:20:00.416Z,51.4
2022-09-02T03:25:00.267Z,44.4
2022-09-02T03:30:00.398Z,40.2
2022-09-02T03:35:00.216Z,38.7
2022-09-02T03:40:00.443Z,42.6
2022-09-02T03:45:00.463Z,32.5
2022-09-02T03:50:00.410Z,27.8
2022-09-02T03:55:00.792Z,39.8
2022-09-02T04:00:00.444Z,35.2
2022-09-02T04:05:00.233Z,45.3
2022-09-02T04:10:00.364Z,31.1
2022-09-02T04:15:00.233Z,38.5
2022-09-02T04:20:00.387Z,43.8
2022-09-02T04:25:00.227Z,42.9
2022-09-02T04:30:00.388Z,35.9
2022-09-02T04:35:00.249Z,44.5
2022-09-02T04:40:00.384Z,47.7
2022-09-02T04:45:00.251Z,50.8
2022-09-02T04:50:00.388Z,36.6
2022-09-02T04:55:00.279Z,45.7
2022-09-02T05:00:00.430Z,30.8
2022-09-02T05:05:00.261Z,35.0
2022-09-02T05:10:00.370Z,48.7
2022-09-02T05:15:00.249Z,43.1
2022-09-02T05:20:00.394Z,38.8
2022-09-02T05:25:00.842Z,52.4
2022-09-02T05:30:00.395Z,60.5
2022-09-02T05:35:00.205Z,45.6
2022-09-02T05:40:01.639Z,52.2
2022-09-02T05:45:00.219Z,49.9
2022-09-02T05:50:00.403Z,47.0
2022-09-02T05:55:00.252Z,63.9
2022-09-02T06:00:00.402Z,56.4
2022-09-02T06:05:00.207Z,44.4
2022-09-02T06:10:00.391Z,50.4
2022-09-02T06:15:00.284Z,55.3
2022-09-02T06:20:00.382Z,33.3
2022-09-02T06:25:00.240Z,50.5
2022-09-02T06:30:00.416Z,51.1
2022-09-02T06:35:00.238Z,59.2
2022-09-02T06:40:00.390Z,62.8
2022-09-02T06:45:00.236Z,63.0
2022-09-02T06:50:00.399Z,46.1
2022-09-02T06:55:00.239Z,63.7
2022-09-02T07:00:02.878Z,41.6
2022-09-02T07:05:00.244Z,45.5
2022-09-02T07:10:00.418Z,62.7
2022-09-02T07:15:00.240Z,36.8
2022-09-02T07:20:00.577Z,40.5
2022-09-02T07:25:00.244Z,49.6
2022-09-02T07:30:00.531Z,65.1
2022-09-02T07:35:00.233Z,37.5
2022-09-02T07:40:00.403Z,48.1
2022-09-02T07:45:00.367Z,65.2
2022-09-02T07:50:22.043Z,48.7
2022-09-02T07:55:00.318Z,56.2
2022-09-02T08:00:00.414Z,36.4
2022-09-02T08:05:00.247Z,50.1
2022-09-02T08:10:00.377Z,41.2
2022-09-02T08:15:00.485Z,57.8
2022-09-02T08:20:00.405Z,47.1
2022-09-02T08:25:00.234Z,51.4
2022-09-02T08:30:00.382Z,59.6
2022-09-02T08:35:00.260Z,71.8
2022-09-02T08:40:00.414Z,83.2
2022-09-02T08:45:00.314Z,66.7
2022-09-02T08:50:00.387Z,128.8
2022-09-02T08:55:00.258Z,144.1
2022-09-02T09:00:00.521Z,128.9
2022-09-02T09:05:00.240Z,94.7
2022-09-02T09:10:00.444Z,63.4
2022-09-02T09:15:00.278Z,141.9
2022-09-02T09:20:00.385Z,104.7
2022-09-02T09:25:00.411Z,133.1
2022-09-02T09:30:00.910Z,48.5
2022-09-02T09:35:00.999Z,112.2
2022-09-02T09:40:00.407Z,67.1
2022-09-02T09:45:00.255Z,96.3
2022-09-02T09:50:00.425Z,160.8
2022-09-02T09:55:00.268Z,106.7
2022-09-02T10:00:00.486Z,140.6
2022-09-02T10:05:00.393Z,90.1
2022-09-02T10:10:00.389Z,77.6
2022-09-02T10:15:00.268Z,63.0
2022-09-02T10:20:05.300Z,74.4
2022-09-02T10:25:00.234Z,119.4
2022-09-02T10:30:00.772Z,136.9
2022-09-02T10:35:00.257Z,168.2
2022-09-02T10:40:00.521Z,157.0
2022-09-02T10:45:00.264Z,80.9
2022-09-02T10:50:00.501Z,92.8
2022-09-02T10:55:00.266Z,103.4
2022-09-02T11:00:00.437Z,73.1
2022-09-02T11:05:01.953Z,32.3
2022-09-02T11:10:00.550Z,76.7
2022-09-02T11:15:00.452Z,59.2
2022-09-02T11:20:00.483Z,53.5
2022-09-02T11:25:00.241Z,81.8
2022-09-02T11:30:01.185Z,169.1
2022-09-02T11:35:00.499Z,149.2
2022-09-02T11:40:34.475Z,165.5
2022-09-02T11:45:00.383Z,67.0
2022-09-02T11:50:00.408Z,48.5
2022-09-02T11:55:03.346Z,49.4
2022-09-02T12:00:00.476Z,141.7
2022-09-02T12:05:04.099Z,149.5
2022-09-02T12:10:01.064Z,146.6
2022-09-02T12:15:00.255Z,143.6
2022-09-02T12:20:00.596Z,118.4
2022-09-02T12:25:00.284Z,91.2
2022-09-02T12:30:00.386Z,95.3
2022-09-02T12:35:00.262Z,155.8
2022-09-02T12:40:00.380Z,147.7
2022-09-02T12:45:00.244Z,105.2
2022-09-02T12:50:00.398Z,167.3
2022-09-02T12:55:00.256Z,173.0
2022-09-02T13:00:00.388Z,156.4
2022-09-02T13:05:00.335Z,180.7
2022-09-02T13:10:00.415Z,149.0
2022-09-02T13:15:00.219Z,113.2
2022-09-02T13:20:00.396Z,164.1
2022-09-02T13:25:00.558Z,171.8
2022-09-02T13:30:00.439Z,162.1
2022-09-02T13:35:00.283Z,120.2
2022-09-02T13:40:00.439Z,157.2
2022-09-02T13:45:00.259Z,145.9
2022-09-02T13:50:00.426Z,61.6
2022-09-02T13:55:00.262Z,82.5
2022-09-02T14:00:00.457Z,60.0
2022-09-02T14:05:00.265Z,69.7
2022-09-02T14:10:00.394Z,96.7
2022-09-02T14:15:00.244Z,61.3
2022-09-02T14:20:02.662Z,84.1
2022-09-02T14:25:00.227Z,99.9
2022-09-02T14:30:01.191Z,63.5
2022-09-02T14:35:00.224Z,60.0
2022-09-02T14:40:00.835Z,58.7
2022-09-02T14:45:00.279Z,80.3
2022-09-02T14:50:00.809Z,142.4
2022-09-02T14:55:00.384Z,147.0
2022-09-02T15:00:00.478Z,72.6
2022-09-02T15:05:00.500Z,64.6
2022-09-02T15:10:00.420Z,89.6
2022-09-02T15:15:00.314Z,63.0
2022-09-02T15:20:00.520Z,55.9
2022-09-02T15:25:00.319Z,82.8
2022-09-02T15:30:00.463Z,85.2
2022-09-02T15:35:00.267Z,75.9
2022-09-02T15:40:00.718Z,105.1
2022-09-02T15:45:00.245Z,85.8
2022-09-02T15:50:00.413Z,64.7
2022-09-02T15:55:00.299Z,66.9
2022-09-02T16:00:00.425Z,74.8
2022-09-02T16:05:00.244Z,75.2
2022-09-02T16:10:04.119Z,57.3
2022-09-02T16:15:00.266Z,61.8
2022-09-02T16:20:00.505Z,70.2
2022-09-02T16:25:00.430Z,65.9
2022-09-02T16:30:00.418Z,81.4
2022-09-02T16:35:00.260Z,58.0
2022-09-02T16:40:00.832Z,69.8
2022-09-02T16:45:00.251Z,48.9
2022-09-02T16:50:00.400Z,46.7
2022-09-02T16:55:00.406Z,65.0
2022-09-02T17:00:00.410Z,62.3
2022-09-02T17:05:00.269Z,63.8
2022-09-02T17:10:00.433Z,72.9
2022-09-02T17:15:00.269Z,63.5
2022-09-02T17:20:00.389Z,67.1
2022-09-02T17:25:00.261Z,64.3
2022-09-02T17:30:00.396Z,61.2
2022-09-02T17:35:00.254Z,64.9
2022-09-02T17:40:00.827Z,71.9
2022-09-02T17:45:00.344Z,70.1
2022-09-02T17:50:00.388Z,61.9
2022-09-02T17:55:00.256Z,66.1
2022-09-02T18:00:00.458Z,86.4
2022-09-02T18:05:00.238Z,66.6
2022-09-02T18:10:00.439Z,60.7
2022-09-02T18:15:00.283Z,66.3
2022-09-02T18:20:00.396Z,77.8
2022-09-02T18:25:00.252Z,68.6
2022-09-02T18:30:00.432Z,69.8
2022-09-02T18:35:00.237Z,63.1
2022-09-02T18:40:03.808Z,61.0
2022-09-02T18:45:00.240Z,57.3
2022-09-02T18:50:00.386Z,59.6
2022-09-02T18:55:00.243Z,73.0
2022-09-02T19:00:00.441Z,62.7
2022-09-02T19:05:01.907Z,66.4
2022-09-02T19:10:00.387Z,56.8
2022-09-02T19:15:00.243Z,66.4
2022-09-02T19:20:00.395Z,60.1
2022-09-02T19:25:00.341Z,57.4
2022-09-02T19:30:00.384Z,59.4
2022-09-02T19:35:00.250Z,60.7
2022-09-02T19:40:04.729Z,59.8
2022-09-02T19:45:01.256Z,61.3
2022-09-02T19:50:00.371Z,54.1
2022-09-02T19:55:01.426Z,57.1
2022-09-02T20:00:00.506Z,57.9
2022-09-02T20:05:00.225Z,61.7
2022-09-02T20:10:00.377Z,51.3
2022-09-02T20:15:00.230Z,46.2
2022-09-02T20:20:00.605Z,44.9
2022-09-02T20:25:00.578Z,52.0
2022-09-02T20:30:00.437Z,61.9
2022-09-02T20:35:00.387Z,53.0
2022-09-02T20:40:00.764Z,50.6
2022-09-02T20:45:00.240Z,53.1
2022-09-02T20:50:01.075Z,47.3
2022-09-02T20:55:00.390Z,52.5
2022-09-02T21:00:00.574Z,50.0
2022-09-02T21:05:00.240Z,45.1
2022-09-02T21:10:00.397Z,44.6
2022-09-02T21:15:00.387Z,43.8
2022-09-02T21:20:00.438Z,44.7
2022-09-02T21:25:00.244Z,45.0
2022-09-02T21:30:03.461Z,45.0
2022-09-02T21:35:00.271Z,45.0
2022-09-02T21:40:00.666Z,45.0
2022-09-02T21:45:00.342Z,40.8
2022-09-02T21:50:00.396Z,42.2
2022-09-02T21:55:00.268Z,22.6
2022-09-02T22:00:00.542Z,22.5
2022-09-02T22:05:00.524Z,5.6
2022-09-02T22:10:00.405Z,0.0
2022-09-02T22:15:00.242Z,0.0
2022-09-02T22:20:00.413Z,0.0
2022-09-02T22:25:00.269Z,0.0
2022-09-02T22:30:00.390Z,0.0
2022-09-02T22:35:00.223Z,0.0
2022-09-02T22:40:00.819Z,0.0
2022-09-02T22:45:00.260Z,0.0
2022-09-02T22:50:00.435Z,0.0
2022-09-02T22:55:01.477Z,0.0
2022-09-02T23:00:02.668Z,17.0
2022-09-02T23:05:00.226Z,11.2
2022-09-02T23:10:00.349Z,0.1
2022-09-02T23:15:00.307Z,0.0
2022-09-02T23:20:00.344Z,0.5
2022-09-02T23:25:00.260Z,0.0
2022-09-02T23:30:00.894Z,0.0
2022-09-02T23:35:00.231Z,0.0
2022-09-02T23:40:00.757Z,0.0
2022-09-02T23:45:00.241Z,0.0
2022-09-02T23:50:00.381Z,0.0
2022-09-02T23:55:00.259Z,0.0
